sensor_id;sensor_type;location;lat;lon;timestamp;temperature;humidity
52656;SHT85;35474;51.032;6.998;2023-08-06T00:00:34;15.91;86.17
52656;SHT85;35474;51.032;6.998;2023-08-06T00:03:03;15.93;86.06
52656;SHT85;35474;51.032;6.998;2023-08-06T00:05:32;15.90;86.25
52656;SHT85;35474;51.032;6.998;2023-08-06T00:07:58;15.89;86.48
52656;SHT85;35474;51.032;6.998;2023-08-06T00:10:25;15.79;86.77
52656;SHT85;35474;51.032;6.998;2023-08-06T00:12:52;15.73;86.98
52656;SHT85;35474;51.032;6.998;2023-08-06T00:15:18;15.65;87.31
52656;SHT85;35474;51.032;6.998;2023-08-06T00:17:45;15.56;87.66
52656;SHT85;35474;51.032;6.998;2023-08-06T00:20:11;15.43;87.60
52656;SHT85;35474;51.032;6.998;2023-08-06T00:22:38;15.42;88.37
52656;SHT85;35474;51.032;6.998;2023-08-06T00:25:05;15.38;88.60
52656;SHT85;35474;51.032;6.998;2023-08-06T00:27:32;15.38;88.69
52656;SHT85;35474;51.032;6.998;2023-08-06T00:29:59;15.34;88.82
52656;SHT85;35474;51.032;6.998;2023-08-06T00:32:25;15.34;88.82
52656;SHT85;35474;51.032;6.998;2023-08-06T00:34:52;15.31;88.73
52656;SHT85;35474;51.032;6.998;2023-08-06T00:37:18;15.28;88.85
52656;SHT85;35474;51.032;6.998;2023-08-06T00:39:45;15.25;89.11
52656;SHT85;35474;51.032;6.998;2023-08-06T00:42:12;15.20;89.21
52656;SHT85;35474;51.032;6.998;2023-08-06T00:44:38;15.15;89.43
52656;SHT85;35474;51.032;6.998;2023-08-06T00:47:06;15.10;89.68
52656;SHT85;35474;51.032;6.998;2023-08-06T00:49:35;15.08;89.85
52656;SHT85;35474;51.032;6.998;2023-08-06T00:52:06;15.01;89.92
52656;SHT85;35474;51.032;6.998;2023-08-06T00:54:34;15.08;89.96
52656;SHT85;35474;51.032;6.998;2023-08-06T00:57:01;15.07;89.85
52656;SHT85;35474;51.032;6.998;2023-08-06T00:59:29;15.08;89.95
52656;SHT85;35474;51.032;6.998;2023-08-06T01:01:57;15.04;90.11
52656;SHT85;35474;51.032;6.998;2023-08-06T01:04:24;15.01;90.23
52656;SHT85;35474;51.032;6.998;2023-08-06T01:06:52;15.03;90.28
52656;SHT85;35474;51.032;6.998;2023-08-06T01:09:27;15.08;90.23
52656;SHT85;35474;51.032;6.998;2023-08-06T01:12:05;15.10;90.20
52656;SHT85;35474;51.032;6.998;2023-08-06T01:14:44;15.07;90.26
52656;SHT85;35474;51.032;6.998;2023-08-06T01:17:18;15.05;90.23
52656;SHT85;35474;51.032;6.998;2023-08-06T01:19:45;15.10;90.09
52656;SHT85;35474;51.032;6.998;2023-08-06T01:22:11;15.03;90.18
52656;SHT85;35474;51.032;6.998;2023-08-06T01:24:38;15.03;90.26
52656;SHT85;35474;51.032;6.998;2023-08-06T01:27:09;15.04;90.25
52656;SHT85;35474;51.032;6.998;2023-08-06T01:29:41;15.08;90.27
52656;SHT85;35474;51.032;6.998;2023-08-06T01:32:12;15.07;90.32
52656;SHT85;35474;51.032;6.998;2023-08-06T01:34:41;15.05;90.20
52656;SHT85;35474;51.032;6.998;2023-08-06T01:37:11;14.98;90.42
52656;SHT85;35474;51.032;6.998;2023-08-06T01:39:37;14.95;90.73
52656;SHT85;35474;51.032;6.998;2023-08-06T01:42:08;14.93;90.68
52656;SHT85;35474;51.032;6.998;2023-08-06T01:44:35;14.91;90.97
52656;SHT85;35474;51.032;6.998;2023-08-06T01:47:02;14.90;90.94
52656;SHT85;35474;51.032;6.998;2023-08-06T01:49:28;14.84;90.96
52656;SHT85;35474;51.032;6.998;2023-08-06T01:51:55;14.84;91.43
52656;SHT85;35474;51.032;6.998;2023-08-06T01:54:21;14.84;91.27
52656;SHT85;35474;51.032;6.998;2023-08-06T01:56:49;14.77;91.58
52656;SHT85;35474;51.032;6.998;2023-08-06T01:59:15;14.73;91.61
52656;SHT85;35474;51.032;6.998;2023-08-06T02:01:42;14.70;91.84
52656;SHT85;35474;51.032;6.998;2023-08-06T02:04:08;14.67;92.02
52656;SHT85;35474;51.032;6.998;2023-08-06T02:06:35;14.64;92.12
52656;SHT85;35474;51.032;6.998;2023-08-06T02:09:01;14.63;92.25
52656;SHT85;35474;51.032;6.998;2023-08-06T02:11:28;14.66;92.39
52656;SHT85;35474;51.032;6.998;2023-08-06T02:13:54;14.63;92.28
52656;SHT85;35474;51.032;6.998;2023-08-06T02:16:21;14.63;92.37
52656;SHT85;35474;51.032;6.998;2023-08-06T02:18:47;14.59;92.27
52656;SHT85;35474;51.032;6.998;2023-08-06T02:21:14;14.60;92.39
52656;SHT85;35474;51.032;6.998;2023-08-06T02:23:40;14.76;92.64
52656;SHT85;35474;51.032;6.998;2023-08-06T02:26:07;14.73;92.64
52656;SHT85;35474;51.032;6.998;2023-08-06T02:28:33;14.91;92.32
52656;SHT85;35474;51.032;6.998;2023-08-06T02:31:00;14.95;91.94
52656;SHT85;35474;51.032;6.998;2023-08-06T02:33:26;15.05;91.71
52656;SHT85;35474;51.032;6.998;2023-08-06T02:35:59;15.03;91.37
52656;SHT85;35474;51.032;6.998;2023-08-06T02:38:30;15.11;91.02
52656;SHT85;35474;51.032;6.998;2023-08-06T02:40:58;15.15;90.84
52656;SHT85;35474;51.032;6.998;2023-08-06T02:43:24;15.17;90.51
52656;SHT85;35474;51.032;6.998;2023-08-06T02:45:51;15.15;90.58
52656;SHT85;35474;51.032;6.998;2023-08-06T02:48:17;15.11;90.56
52656;SHT85;35474;51.032;6.998;2023-08-06T02:50:44;15.15;90.42
52656;SHT85;35474;51.032;6.998;2023-08-06T02:53:10;15.18;90.45
52656;SHT85;35474;51.032;6.998;2023-08-06T02:55:37;15.14;90.16
52656;SHT85;35474;51.032;6.998;2023-08-06T02:58:03;15.14;90.13
52656;SHT85;35474;51.032;6.998;2023-08-06T03:00:30;15.15;90.10
52656;SHT85;35474;51.032;6.998;2023-08-06T03:02:56;15.18;90.08
52656;SHT85;35474;51.032;6.998;2023-08-06T03:05:23;15.21;89.76
52656;SHT85;35474;51.032;6.998;2023-08-06T03:07:49;15.20;89.68
52656;SHT85;35474;51.032;6.998;2023-08-06T03:10:16;15.24;89.37
52656;SHT85;35474;51.032;6.998;2023-08-06T03:12:42;15.22;89.45
52656;SHT85;35474;51.032;6.998;2023-08-06T03:15:09;15.25;89.20
52656;SHT85;35474;51.032;6.998;2023-08-06T03:17:36;15.27;89.24
52656;SHT85;35474;51.032;6.998;2023-08-06T03:20:03;15.30;89.28
52656;SHT85;35474;51.032;6.998;2023-08-06T03:22:29;15.21;89.51
52656;SHT85;35474;51.032;6.998;2023-08-06T03:24:56;15.30;89.25
52656;SHT85;35474;51.032;6.998;2023-08-06T03:27:22;15.34;89.29
52656;SHT85;35474;51.032;6.998;2023-08-06T03:29:49;15.39;89.20
52656;SHT85;35474;51.032;6.998;2023-08-06T03:32:18;15.42;89.05
52656;SHT85;35474;51.032;6.998;2023-08-06T03:34:45;15.53;88.80
52656;SHT85;35474;51.032;6.998;2023-08-06T03:37:12;15.55;88.75
52656;SHT85;35474;51.032;6.998;2023-08-06T03:39:38;15.45;88.76
52656;SHT85;35474;51.032;6.998;2023-08-06T03:42:05;15.41;88.96
52656;SHT85;35474;51.032;6.998;2023-08-06T03:44:31;15.25;90.02
52656;SHT85;35474;51.032;6.998;2023-08-06T03:46:58;15.22;90.58
52656;SHT85;35474;51.032;6.998;2023-08-06T03:49:24;15.11;91.04
52656;SHT85;35474;51.032;6.998;2023-08-06T03:51:51;15.10;91.57
52656;SHT85;35474;51.032;6.998;2023-08-06T03:54:18;15.03;91.84
52656;SHT85;35474;51.032;6.998;2023-08-06T03:56:44;15.03;91.93
52656;SHT85;35474;51.032;6.998;2023-08-06T03:59:11;14.97;91.88
52656;SHT85;35474;51.032;6.998;2023-08-06T04:01:37;14.93;92.17
52656;SHT85;35474;51.032;6.998;2023-08-06T04:04:04;14.97;92.26
52656;SHT85;35474;51.032;6.998;2023-08-06T04:06:30;14.94;92.26
52656;SHT85;35474;51.032;6.998;2023-08-06T04:08:57;14.93;92.41
52656;SHT85;35474;51.032;6.998;2023-08-06T04:11:23;14.95;92.54
52656;SHT85;35474;51.032;6.998;2023-08-06T04:13:50;14.95;92.67
52656;SHT85;35474;51.032;6.998;2023-08-06T04:16:16;14.97;92.53
52656;SHT85;35474;51.032;6.998;2023-08-06T04:18:43;14.90;92.88
52656;SHT85;35474;51.032;6.998;2023-08-06T04:21:10;14.85;93.12
52656;SHT85;35474;51.032;6.998;2023-08-06T04:23:36;14.83;93.37
52656;SHT85;35474;51.032;6.998;2023-08-06T04:26:03;14.79;93.61
52656;SHT85;35474;51.032;6.998;2023-08-06T04:28:29;14.76;93.73
52656;SHT85;35474;51.032;6.998;2023-08-06T04:30:56;14.74;93.85
52656;SHT85;35474;51.032;6.998;2023-08-06T04:33:23;14.84;93.96
52656;SHT85;35474;51.032;6.998;2023-08-06T04:35:53;14.74;93.99
52656;SHT85;35474;51.032;6.998;2023-08-06T04:38:23;14.79;94.26
52656;SHT85;35474;51.032;6.998;2023-08-06T04:40:50;14.81;94.27
52656;SHT85;35474;51.032;6.998;2023-08-06T04:43:16;14.84;94.27
52656;SHT85;35474;51.032;6.998;2023-08-06T04:45:46;15.04;94.35
52656;SHT85;35474;51.032;6.998;2023-08-06T04:48:13;14.98;93.97
52656;SHT85;35474;51.032;6.998;2023-08-06T04:50:47;15.00;94.07
52656;SHT85;35474;51.032;6.998;2023-08-06T04:53:15;15.10;93.90
52656;SHT85;35474;51.032;6.998;2023-08-06T04:55:42;15.05;93.67
52656;SHT85;35474;51.032;6.998;2023-08-06T04:58:09;15.08;93.87
52656;SHT85;35474;51.032;6.998;2023-08-06T05:00:36;15.10;93.77
52656;SHT85;35474;51.032;6.998;2023-08-06T05:03:03;15.31;93.60
52656;SHT85;35474;51.032;6.998;2023-08-06T05:05:29;15.24;93.58
52656;SHT85;35474;51.032;6.998;2023-08-06T05:07:56;15.15;93.43
52656;SHT85;35474;51.032;6.998;2023-08-06T05:10:26;15.20;93.69
52656;SHT85;35474;51.032;6.998;2023-08-06T05:12:54;15.18;93.84
52656;SHT85;35474;51.032;6.998;2023-08-06T05:15:20;15.30;93.79
52656;SHT85;35474;51.032;6.998;2023-08-06T05:17:47;15.32;93.49
52656;SHT85;35474;51.032;6.998;2023-08-06T05:20:14;15.25;93.47
52656;SHT85;35474;51.032;6.998;2023-08-06T05:22:40;15.32;93.43
52656;SHT85;35474;51.032;6.998;2023-08-06T05:25:07;15.42;93.32
52656;SHT85;35474;51.032;6.998;2023-08-06T05:27:34;15.46;93.23
52656;SHT85;35474;51.032;6.998;2023-08-06T05:30:03;15.46;93.13
52656;SHT85;35474;51.032;6.998;2023-08-06T05:32:33;15.56;92.96
52656;SHT85;35474;51.032;6.998;2023-08-06T05:34:59;15.49;93.11
52656;SHT85;35474;51.032;6.998;2023-08-06T05:37:26;15.62;92.77
52656;SHT85;35474;51.032;6.998;2023-08-06T05:39:52;15.72;92.67
52656;SHT85;35474;51.032;6.998;2023-08-06T05:42:20;15.74;92.44
52656;SHT85;35474;51.032;6.998;2023-08-06T05:44:46;15.93;92.17
52656;SHT85;35474;51.032;6.998;2023-08-06T05:47:13;16.04;91.41
52656;SHT85;35474;51.032;6.998;2023-08-06T05:49:39;15.85;91.38
52656;SHT85;35474;51.032;6.998;2023-08-06T05:52:06;15.82;91.36
52656;SHT85;35474;51.032;6.998;2023-08-06T05:54:34;15.91;91.44
52656;SHT85;35474;51.032;6.998;2023-08-06T05:57:01;15.94;91.08
52656;SHT85;35474;51.032;6.998;2023-08-06T05:59:27;16.09;91.29
52656;SHT85;35474;51.032;6.998;2023-08-06T06:01:54;15.96;90.82
52656;SHT85;35474;51.032;6.998;2023-08-06T06:04:21;16.10;90.91
52656;SHT85;35474;51.032;6.998;2023-08-06T06:06:47;16.27;90.79
52656;SHT85;35474;51.032;6.998;2023-08-06T06:09:14;15.96;90.64
52656;SHT85;35474;51.032;6.998;2023-08-06T06:11:40;16.03;90.74
52656;SHT85;35474;51.032;6.998;2023-08-06T06:14:07;16.04;90.85
52656;SHT85;35474;51.032;6.998;2023-08-06T06:16:34;16.09;90.23
52656;SHT85;35474;51.032;6.998;2023-08-06T06:19:00;16.20;90.48
52656;SHT85;35474;51.032;6.998;2023-08-06T06:21:27;16.00;90.18
52656;SHT85;35474;51.032;6.998;2023-08-06T06:23:53;15.91;90.07
52656;SHT85;35474;51.032;6.998;2023-08-06T06:26:20;16.09;90.01
52656;SHT85;35474;51.032;6.998;2023-08-06T06:28:47;16.01;90.36
52656;SHT85;35474;51.032;6.998;2023-08-06T06:32:35;16.25;90.12
52656;SHT85;35474;51.032;6.998;2023-08-06T06:35:01;16.35;89.83
52656;SHT85;35474;51.032;6.998;2023-08-06T06:37:28;16.44;89.73
52656;SHT85;35474;51.032;6.998;2023-08-06T06:39:54;16.13;89.21
52656;SHT85;35474;51.032;6.998;2023-08-06T06:42:21;16.01;89.64
52656;SHT85;35474;51.032;6.998;2023-08-06T06:44:49;15.91;90.29
52656;SHT85;35474;51.032;6.998;2023-08-06T06:47:15;15.97;90.68
52656;SHT85;35474;51.032;6.998;2023-08-06T06:49:41;16.07;90.65
52656;SHT85;35474;51.032;6.998;2023-08-06T06:52:08;16.17;90.93
52656;SHT85;35474;51.032;6.998;2023-08-06T06:54:34;16.37;90.54
52656;SHT85;35474;51.032;6.998;2023-08-06T06:57:01;16.58;89.97
52656;SHT85;35474;51.032;6.998;2023-08-06T06:59:28;16.31;89.65
52656;SHT85;35474;51.032;6.998;2023-08-06T07:01:54;16.67;89.73
52656;SHT85;35474;51.032;6.998;2023-08-06T07:04:21;16.85;88.96
52656;SHT85;35474;51.032;6.998;2023-08-06T07:06:48;16.80;89.27
52656;SHT85;35474;51.032;6.998;2023-08-06T07:09:14;16.67;88.99
52656;SHT85;35474;51.032;6.998;2023-08-06T07:11:41;16.40;89.50
52656;SHT85;35474;51.032;6.998;2023-08-06T07:14:09;16.32;89.76
52656;SHT85;35474;51.032;6.998;2023-08-06T07:16:36;16.35;89.99
52656;SHT85;35474;51.032;6.998;2023-08-06T07:19:02;16.57;90.35
52656;SHT85;35474;51.032;6.998;2023-08-06T07:21:29;16.52;90.51
52656;SHT85;35474;51.032;6.998;2023-08-06T07:23:55;16.59;89.69
52656;SHT85;35474;51.032;6.998;2023-08-06T07:26:22;16.67;89.68
52656;SHT85;35474;51.032;6.998;2023-08-06T07:28:48;16.80;89.57
52656;SHT85;35474;51.032;6.998;2023-08-06T07:31:15;16.86;89.85
52656;SHT85;35474;51.032;6.998;2023-08-06T07:33:42;16.86;89.90
52656;SHT85;35474;51.032;6.998;2023-08-06T07:36:12;16.89;89.80
52656;SHT85;35474;51.032;6.998;2023-08-06T07:38:40;16.90;89.39
52656;SHT85;35474;51.032;6.998;2023-08-06T07:41:06;16.92;89.22
52656;SHT85;35474;51.032;6.998;2023-08-06T07:43:33;16.82;88.96
52656;SHT85;35474;51.032;6.998;2023-08-06T07:46:01;16.89;89.30
52656;SHT85;35474;51.032;6.998;2023-08-06T07:48:28;16.90;88.89
52656;SHT85;35474;51.032;6.998;2023-08-06T07:50:55;16.73;88.40
52656;SHT85;35474;51.032;6.998;2023-08-06T07:53:22;16.73;88.68
52656;SHT85;35474;51.032;6.998;2023-08-06T07:55:50;16.85;88.76
52656;SHT85;35474;51.032;6.998;2023-08-06T07:58:18;17.00;88.60
52656;SHT85;35474;51.032;6.998;2023-08-06T08:00:45;17.11;87.98
52656;SHT85;35474;51.032;6.998;2023-08-06T08:03:12;17.43;87.14
52656;SHT85;35474;51.032;6.998;2023-08-06T08:05:40;17.41;86.72
52656;SHT85;35474;51.032;6.998;2023-08-06T08:08:08;17.50;86.59
52656;SHT85;35474;51.032;6.998;2023-08-06T08:10:35;17.71;86.45
52656;SHT85;35474;51.032;6.998;2023-08-06T08:13:02;17.78;86.46
52656;SHT85;35474;51.032;6.998;2023-08-06T08:15:29;17.88;86.29
52656;SHT85;35474;51.032;6.998;2023-08-06T08:17:56;18.13;84.51
52656;SHT85;35474;51.032;6.998;2023-08-06T08:20:23;17.51;84.06
52656;SHT85;35474;51.032;6.998;2023-08-06T08:22:50;17.44;85.31
52656;SHT85;35474;51.032;6.998;2023-08-06T08:25:16;17.33;85.14
52656;SHT85;35474;51.032;6.998;2023-08-06T08:27:43;16.96;85.88
52656;SHT85;35474;51.032;6.998;2023-08-06T08:30:09;16.65;87.70
52656;SHT85;35474;51.032;6.998;2023-08-06T08:32:36;16.44;89.61
52656;SHT85;35474;51.032;6.998;2023-08-06T08:35:02;16.37;90.57
52656;SHT85;35474;51.032;6.998;2023-08-06T08:37:29;16.24;91.01
52656;SHT85;35474;51.032;6.998;2023-08-06T08:39:55;16.13;92.09
52656;SHT85;35474;51.032;6.998;2023-08-06T08:42:22;16.47;93.14
52656;SHT85;35474;51.032;6.998;2023-08-06T08:44:49;16.55;92.70
52656;SHT85;35474;51.032;6.998;2023-08-06T08:47:16;16.57;92.15
52656;SHT85;35474;51.032;6.998;2023-08-06T08:49:42;16.59;91.50
52656;SHT85;35474;51.032;6.998;2023-08-06T08:52:10;16.67;91.83
52656;SHT85;35474;51.032;6.998;2023-08-06T08:54:39;16.92;91.73
52656;SHT85;35474;51.032;6.998;2023-08-06T08:57:06;17.07;91.22
52656;SHT85;35474;51.032;6.998;2023-08-06T08:59:33;17.14;90.80
52656;SHT85;35474;51.032;6.998;2023-08-06T09:02:02;17.03;90.57
52656;SHT85;35474;51.032;6.998;2023-08-06T09:04:29;16.88;91.03
52656;SHT85;35474;51.032;6.998;2023-08-06T09:07:00;16.93;91.77
52656;SHT85;35474;51.032;6.998;2023-08-06T09:09:34;16.89;91.48
52656;SHT85;35474;51.032;6.998;2023-08-06T09:12:11;16.99;91.63
52656;SHT85;35474;51.032;6.998;2023-08-06T09:14:40;16.85;91.60
52656;SHT85;35474;51.032;6.998;2023-08-06T09:17:07;16.92;91.86
52656;SHT85;35474;51.032;6.998;2023-08-06T09:19:36;16.95;92.12
52656;SHT85;35474;51.032;6.998;2023-08-06T09:22:04;16.75;90.92
52656;SHT85;35474;51.032;6.998;2023-08-06T09:24:38;16.82;90.95
52656;SHT85;35474;51.032;6.998;2023-08-06T09:27:11;17.03;90.98
52656;SHT85;35474;51.032;6.998;2023-08-06T09:29:40;17.26;89.87
52656;SHT85;35474;51.032;6.998;2023-08-06T09:32:09;17.55;89.09
52656;SHT85;35474;51.032;6.998;2023-08-06T09:34:38;17.65;88.17
52656;SHT85;35474;51.032;6.998;2023-08-06T09:37:05;17.57;87.18
52656;SHT85;35474;51.032;6.998;2023-08-06T09:39:32;17.94;86.58
52656;SHT85;35474;51.032;6.998;2023-08-06T09:42:00;18.04;85.81
52656;SHT85;35474;51.032;6.998;2023-08-06T09:44:28;19.64;82.19
52656;SHT85;35474;51.032;6.998;2023-08-06T09:47:02;19.94;79.60
52656;SHT85;35474;51.032;6.998;2023-08-06T09:49:47;19.50;78.89
52656;SHT85;35474;51.032;6.998;2023-08-06T09:52:14;19.43;79.81
52656;SHT85;35474;51.032;6.998;2023-08-06T09:54:42;20.24;78.44
52656;SHT85;35474;51.032;6.998;2023-08-06T09:57:11;20.75;76.53
52656;SHT85;35474;51.032;6.998;2023-08-06T09:59:52;20.20;75.18
52656;SHT85;35474;51.032;6.998;2023-08-06T10:02:20;20.28;74.58
52656;SHT85;35474;51.032;6.998;2023-08-06T10:04:53;19.47;76.66
52656;SHT85;35474;51.032;6.998;2023-08-06T10:07:21;18.36;79.36
52656;SHT85;35474;51.032;6.998;2023-08-06T10:09:51;17.33;87.95
52656;SHT85;35474;51.032;6.998;2023-08-06T10:12:17;16.71;89.30
52656;SHT85;35474;51.032;6.998;2023-08-06T10:14:46;16.10;91.40
52656;SHT85;35474;51.032;6.998;2023-08-06T10:17:16;15.83;92.38
52656;SHT85;35474;51.032;6.998;2023-08-06T10:19:43;15.63;93.02
52656;SHT85;35474;51.032;6.998;2023-08-06T10:22:15;15.48;93.25
52656;SHT85;35474;51.032;6.998;2023-08-06T10:32:58;15.35;95.44
52656;SHT85;35474;51.032;6.998;2023-08-06T10:37:59;15.46;95.97
52656;SHT85;35474;51.032;6.998;2023-08-06T10:40:29;15.31;95.82
52656;SHT85;35474;51.032;6.998;2023-08-06T10:42:58;15.32;95.84
52656;SHT85;35474;51.032;6.998;2023-08-06T10:45:26;15.12;95.93
52656;SHT85;35474;51.032;6.998;2023-08-06T10:47:55;15.15;96.08
52656;SHT85;35474;51.032;6.998;2023-08-06T10:50:23;15.10;96.01
52656;SHT85;35474;51.032;6.998;2023-08-06T10:52:50;14.93;95.86
52656;SHT85;35474;51.032;6.998;2023-08-06T10:55:27;14.97;95.73
52656;SHT85;35474;51.032;6.998;2023-08-06T10:57:55;14.85;95.57
52656;SHT85;35474;51.032;6.998;2023-08-06T11:00:22;14.85;95.62
52656;SHT85;35474;51.032;6.998;2023-08-06T11:02:52;14.91;95.59
52656;SHT85;35474;51.032;6.998;2023-08-06T11:05:21;14.83;95.55
52656;SHT85;35474;51.032;6.998;2023-08-06T11:07:48;14.69;95.32
52656;SHT85;35474;51.032;6.998;2023-08-06T11:10:15;14.59;95.40
52656;SHT85;35474;51.032;6.998;2023-08-06T11:12:42;14.60;95.68
52656;SHT85;35474;51.032;6.998;2023-08-06T11:15:09;14.57;95.80
52656;SHT85;35474;51.032;6.998;2023-08-06T11:17:36;14.48;95.97
52656;SHT85;35474;51.032;6.998;2023-08-06T11:20:03;14.42;96.18
52656;SHT85;35474;51.032;6.998;2023-08-06T11:22:31;14.36;96.40
52656;SHT85;35474;51.032;6.998;2023-08-06T11:24:58;14.22;96.30
52656;SHT85;35474;51.032;6.998;2023-08-06T11:27:26;14.22;96.44
52656;SHT85;35474;51.032;6.998;2023-08-06T11:29:53;14.19;96.48
52656;SHT85;35474;51.032;6.998;2023-08-06T11:32:20;14.29;96.46
52656;SHT85;35474;51.032;6.998;2023-08-06T11:34:46;14.30;96.49
52656;SHT85;35474;51.032;6.998;2023-08-06T11:37:13;14.32;96.58
52656;SHT85;35474;51.032;6.998;2023-08-06T11:39:44;14.09;96.40
52656;SHT85;35474;51.032;6.998;2023-08-06T11:42:14;14.18;96.16
52656;SHT85;35474;51.032;6.998;2023-08-06T11:44:41;14.15;96.11
52656;SHT85;35474;51.032;6.998;2023-08-06T11:47:15;14.21;96.05
52656;SHT85;35474;51.032;6.998;2023-08-06T11:49:44;14.18;95.82
52656;SHT85;35474;51.032;6.998;2023-08-06T11:52:17;14.35;95.95
52656;SHT85;35474;51.032;6.998;2023-08-06T11:55:02;14.30;95.84
52656;SHT85;35474;51.032;6.998;2023-08-06T11:57:33;14.42;95.76
52656;SHT85;35474;51.032;6.998;2023-08-06T12:00:08;14.46;95.63
52656;SHT85;35474;51.032;6.998;2023-08-06T12:02:40;14.49;94.99
52656;SHT85;35474;51.032;6.998;2023-08-06T12:05:17;14.56;94.81
52656;SHT85;35474;51.032;6.998;2023-08-06T12:10:42;14.64;94.38
52656;SHT85;35474;51.032;6.998;2023-08-06T12:13:11;14.66;94.16
52656;SHT85;35474;51.032;6.998;2023-08-06T12:15:39;14.69;93.61
52656;SHT85;35474;51.032;6.998;2023-08-06T12:18:05;14.73;93.77
52656;SHT85;35474;51.032;6.998;2023-08-06T12:20:32;14.84;93.36
52656;SHT85;35474;51.032;6.998;2023-08-06T12:23:00;14.94;93.08
52656;SHT85;35474;51.032;6.998;2023-08-06T12:25:30;14.95;92.44
52656;SHT85;35474;51.032;6.998;2023-08-06T12:27:58;15.05;91.81
52656;SHT85;35474;51.032;6.998;2023-08-06T12:30:26;15.15;91.55
52656;SHT85;35474;51.032;6.998;2023-08-06T12:32:52;15.22;90.93
52656;SHT85;35474;51.032;6.998;2023-08-06T12:35:20;15.28;91.13
52656;SHT85;35474;51.032;6.998;2023-08-06T12:37:47;15.36;90.74
52656;SHT85;35474;51.032;6.998;2023-08-06T12:40:13;15.39;90.54
52656;SHT85;35474;51.032;6.998;2023-08-06T12:43:00;15.49;90.22
52656;SHT85;35474;51.032;6.998;2023-08-06T12:45:28;15.49;89.87
52656;SHT85;35474;51.032;6.998;2023-08-06T12:47:57;15.51;90.13
52656;SHT85;35474;51.032;6.998;2023-08-06T12:50:26;15.52;89.17
52656;SHT85;35474;51.032;6.998;2023-08-06T12:52:53;15.53;87.99
52656;SHT85;35474;51.032;6.998;2023-08-06T12:55:20;15.56;87.06
52656;SHT85;35474;51.032;6.998;2023-08-06T12:57:46;15.59;86.44
52656;SHT85;35474;51.032;6.998;2023-08-06T13:00:24;15.66;87.04
52656;SHT85;35474;51.032;6.998;2023-08-06T13:02:52;15.65;87.61
52656;SHT85;35474;51.032;6.998;2023-08-06T13:05:22;15.61;86.96
52656;SHT85;35474;51.032;6.998;2023-08-06T13:07:49;15.63;87.08
52656;SHT85;35474;51.032;6.998;2023-08-06T13:10:15;15.65;87.42
52656;SHT85;35474;51.032;6.998;2023-08-06T13:12:42;15.65;88.04
52656;SHT85;35474;51.032;6.998;2023-08-06T13:15:10;15.66;87.73
52656;SHT85;35474;51.032;6.998;2023-08-06T13:17:36;15.65;87.47
52656;SHT85;35474;51.032;6.998;2023-08-06T13:20:06;15.70;87.15
52656;SHT85;35474;51.032;6.998;2023-08-06T13:22:33;15.70;86.84
52656;SHT85;35474;51.032;6.998;2023-08-06T13:25:03;15.72;87.12
52656;SHT85;35474;51.032;6.998;2023-08-06T13:27:30;15.73;86.21
52656;SHT85;35474;51.032;6.998;2023-08-06T13:29:56;15.82;86.10
52656;SHT85;35474;51.032;6.998;2023-08-06T13:32:24;15.86;85.36
52656;SHT85;35474;51.032;6.998;2023-08-06T13:34:50;15.89;84.79
52656;SHT85;35474;51.032;6.998;2023-08-06T13:37:17;16.00;85.14
52656;SHT85;35474;51.032;6.998;2023-08-06T13:39:51;16.09;84.57
52656;SHT85;35474;51.032;6.998;2023-08-06T13:42:21;16.14;85.01
52656;SHT85;35474;51.032;6.998;2023-08-06T13:44:49;16.27;85.67
52656;SHT85;35474;51.032;6.998;2023-08-06T13:47:16;16.24;85.95
52656;SHT85;35474;51.032;6.998;2023-08-06T13:49:42;16.09;83.88
52656;SHT85;35474;51.032;6.998;2023-08-06T13:52:09;16.10;84.83
52656;SHT85;35474;51.032;6.998;2023-08-06T13:54:47;16.03;85.33
52656;SHT85;35474;51.032;6.998;2023-08-06T13:57:14;16.09;85.74
52656;SHT85;35474;51.032;6.998;2023-08-06T13:59:40;16.09;86.03
52656;SHT85;35474;51.032;6.998;2023-08-06T14:02:10;16.09;86.06
52656;SHT85;35474;51.032;6.998;2023-08-06T14:04:37;16.10;86.40
52656;SHT85;35474;51.032;6.998;2023-08-06T14:07:04;16.14;86.60
52656;SHT85;35474;51.032;6.998;2023-08-06T14:09:30;16.18;86.43
52656;SHT85;35474;51.032;6.998;2023-08-06T14:11:57;16.14;86.53
52656;SHT85;35474;51.032;6.998;2023-08-06T14:14:24;16.04;86.70
52656;SHT85;35474;51.032;6.998;2023-08-06T14:16:52;16.01;87.14
52656;SHT85;35474;51.032;6.998;2023-08-06T14:19:23;15.97;87.47
52656;SHT85;35474;51.032;6.998;2023-08-06T14:21:49;15.90;88.14
52656;SHT85;35474;51.032;6.998;2023-08-06T14:24:17;15.96;89.05
52656;SHT85;35474;51.032;6.998;2023-08-06T14:26:45;15.96;88.84
52656;SHT85;35474;51.032;6.998;2023-08-06T14:29:12;15.93;89.72
52656;SHT85;35474;51.032;6.998;2023-08-06T14:31:40;15.86;89.71
52656;SHT85;35474;51.032;6.998;2023-08-06T14:34:07;15.85;90.19
52656;SHT85;35474;51.032;6.998;2023-08-06T14:36:34;15.72;90.66
52656;SHT85;35474;51.032;6.998;2023-08-06T14:39:00;15.45;89.95
52656;SHT85;35474;51.032;6.998;2023-08-06T14:41:27;15.20;90.80
52656;SHT85;35474;51.032;6.998;2023-08-06T14:43:54;14.94;93.51
52656;SHT85;35474;51.032;6.998;2023-08-06T14:46:20;14.81;94.51
52656;SHT85;35474;51.032;6.998;2023-08-06T14:48:47;14.63;95.07
52656;SHT85;35474;51.032;6.998;2023-08-06T14:51:14;14.67;95.55
52656;SHT85;35474;51.032;6.998;2023-08-06T14:53:41;14.63;95.85
52656;SHT85;35474;51.032;6.998;2023-08-06T14:56:07;14.59;96.27
52656;SHT85;35474;51.032;6.998;2023-08-06T14:58:34;14.53;96.45
52656;SHT85;35474;51.032;6.998;2023-08-06T15:01:02;14.63;96.58
52656;SHT85;35474;51.032;6.998;2023-08-06T15:03:30;14.64;96.49
52656;SHT85;35474;51.032;6.998;2023-08-06T15:05:58;14.72;96.36
52656;SHT85;35474;51.032;6.998;2023-08-06T15:08:24;14.79;96.28
52656;SHT85;35474;51.032;6.998;2023-08-06T15:10:52;14.72;95.94
52656;SHT85;35474;51.032;6.998;2023-08-06T15:13:23;14.77;95.93
52656;SHT85;35474;51.032;6.998;2023-08-06T15:15:49;14.84;95.59
52656;SHT85;35474;51.032;6.998;2023-08-06T15:18:16;14.81;95.73
52656;SHT85;35474;51.032;6.998;2023-08-06T15:20:43;14.91;96.05
52656;SHT85;35474;51.032;6.998;2023-08-06T15:23:09;14.94;96.19
52656;SHT85;35474;51.032;6.998;2023-08-06T15:25:36;14.97;96.46
52656;SHT85;35474;51.032;6.998;2023-08-06T15:28:03;14.93;96.52
52656;SHT85;35474;51.032;6.998;2023-08-06T15:30:30;14.87;96.51
52656;SHT85;35474;51.032;6.998;2023-08-06T15:32:56;14.87;96.58
52656;SHT85;35474;51.032;6.998;2023-08-06T15:35:23;14.94;96.71
52656;SHT85;35474;51.032;6.998;2023-08-06T15:37:50;14.94;96.70
52656;SHT85;35474;51.032;6.998;2023-08-06T15:40:16;14.85;96.63
52656;SHT85;35474;51.032;6.998;2023-08-06T15:42:43;14.76;96.27
52656;SHT85;35474;51.032;6.998;2023-08-06T15:45:10;14.79;96.25
52656;SHT85;35474;51.032;6.998;2023-08-06T15:47:37;14.87;96.26